createdAt,value
2023-04-24T00:02:25.175Z,20.49
2023-04-24T00:04:52.338Z,20.50
2023-04-24T00:07:23.767Z,20.50
2023-04-24T00:09:52.751Z,20.49
2023-04-24T00:12:19.468Z,20.51
2023-04-24T00:14:46.087Z,20.52
2023-04-24T00:17:14.928Z,20.52
2023-04-24T00:19:41.794Z,20.53
2023-04-24T00:22:11.964Z,20.52
2023-04-24T00:24:38.666Z,20.53
2023-04-24T00:27:07.647Z,20.53
2023-04-24T00:29:34.327Z,20.54
2023-04-24T00:32:01.208Z,20.53
2023-04-24T00:34:29.996Z,20.49
2023-04-24T00:36:56.615Z,20.55
2023-04-24T00:39:23.973Z,20.55
2023-04-24T00:41:51.981Z,20.54
2023-04-24T00:44:20.981Z,20.54
2023-04-24T00:46:48.288Z,20.55
2023-04-24T00:49:17.321Z,20.55
2023-04-24T00:51:46.671Z,20.56
2023-04-24T00:54:14.112Z,20.54
2023-04-24T00:56:41.396Z,20.56
2023-04-24T00:59:10.560Z,20.55
2023-04-24T01:01:37.220Z,20.56
2023-04-24T01:04:06.248Z,20.56
2023-04-24T01:06:40.703Z,20.57
2023-04-24T01:09:09.354Z,20.57
2023-04-24T01:11:37.422Z,20.55
2023-04-24T01:14:04.124Z,20.56
2023-04-24T01:16:30.927Z,20.56
2023-04-24T01:19:00.003Z,20.56
2023-04-24T01:21:28.867Z,20.56
2023-04-24T01:23:57.710Z,20.57
2023-04-24T01:26:26.613Z,20.56
2023-04-24T01:28:55.590Z,20.56
2023-04-24T01:31:24.451Z,20.55
2023-04-24T01:33:51.997Z,20.57
2023-04-24T01:36:24.679Z,20.55
2023-04-24T01:38:52.626Z,20.56
2023-04-24T01:41:19.370Z,20.56
2023-04-24T01:43:48.281Z,20.57
2023-04-24T01:46:17.551Z,20.56
2023-04-24T01:48:46.468Z,20.56
2023-04-24T01:51:13.112Z,20.57
2023-04-24T01:53:39.798Z,20.56
2023-04-24T01:56:06.535Z,20.56
2023-04-24T01:58:33.329Z,20.56
2023-04-24T02:01:00.740Z,20.56
2023-04-24T02:03:30.285Z,20.55
2023-04-24T02:05:59.182Z,20.56
2023-04-24T02:08:27.967Z,20.55
2023-04-24T02:10:55.080Z,20.56
2023-04-24T02:13:21.781Z,20.55
2023-04-24T02:15:50.607Z,20.56
2023-04-24T02:18:18.017Z,20.57
2023-04-24T02:20:44.685Z,20.57
2023-04-24T02:23:11.258Z,20.56
2023-04-24T02:25:40.431Z,20.55
2023-04-24T02:28:09.326Z,20.54
2023-04-24T02:30:35.988Z,20.54
2023-04-24T02:33:07.787Z,20.55
2023-04-24T02:35:34.476Z,20.54
2023-04-24T02:38:01.085Z,20.55
2023-04-24T02:40:27.717Z,20.54
2023-04-24T02:42:56.531Z,20.55
2023-04-24T02:45:23.204Z,20.54
2023-04-24T02:47:54.661Z,20.55
2023-04-24T02:50:21.581Z,20.54
2023-04-24T02:52:48.186Z,20.54
2023-04-24T02:55:19.655Z,20.54
2023-04-24T02:57:49.181Z,20.54
2023-04-24T03:00:18.547Z,20.53
2023-04-24T03:02:45.286Z,20.54
2023-04-24T03:05:14.574Z,20.54
2023-04-24T03:07:41.378Z,20.53
2023-04-24T03:10:11.500Z,20.54
2023-04-24T03:12:38.164Z,20.53
2023-04-24T03:15:07.491Z,20.52
2023-04-24T03:17:36.547Z,20.54
2023-04-24T03:20:03.835Z,20.52
2023-04-24T03:22:33.630Z,20.53
2023-04-24T03:25:00.330Z,20.52
2023-04-24T03:27:29.265Z,20.52
2023-04-24T03:29:58.837Z,20.52
2023-04-24T03:32:25.522Z,20.52
2023-04-24T03:34:54.472Z,20.50
2023-04-24T03:37:24.245Z,20.52
2023-04-24T03:39:53.073Z,20.51
2023-04-24T03:42:19.774Z,20.49
2023-04-24T03:44:46.599Z,20.49
2023-04-24T03:47:16.128Z,20.49
2023-04-24T03:49:43.240Z,20.49
2023-04-24T03:52:12.877Z,20.50
2023-04-24T03:54:39.623Z,20.50
2023-04-24T03:57:08.454Z,20.49
2023-04-24T03:59:39.938Z,20.49
2023-04-24T04:02:08.972Z,20.51
2023-04-24T04:04:35.806Z,20.49
2023-04-24T04:07:04.800Z,20.50
2023-04-24T04:09:33.634Z,20.51
2023-04-24T04:12:01.472Z,20.50
2023-04-24T04:14:28.592Z,20.50
2023-04-24T04:16:55.370Z,20.50
2023-04-24T04:19:26.814Z,20.44
2023-04-24T04:21:54.574Z,20.48
2023-04-24T04:24:25.133Z,20.49
2023-04-24T04:26:53.302Z,20.49
2023-04-24T04:29:22.155Z,20.49
2023-04-24T04:31:48.936Z,20.49
2023-04-24T04:34:18.034Z,20.49
2023-04-24T04:36:45.317Z,20.51
2023-04-24T04:39:12.003Z,20.49
2023-04-24T04:41:41.597Z,20.49
2023-04-24T04:44:09.907Z,20.48
2023-04-24T04:46:41.283Z,20.49
2023-04-24T04:49:10.145Z,20.48
2023-04-24T04:51:43.033Z,20.49
2023-04-24T04:54:09.917Z,20.49
2023-04-24T04:56:39.325Z,20.49
2023-04-24T04:59:08.424Z,20.47
2023-04-24T05:01:39.758Z,20.49
2023-04-24T05:04:08.763Z,20.48
2023-04-24T05:06:35.507Z,20.49
2023-04-24T05:09:02.206Z,20.48
2023-04-24T05:11:31.122Z,20.49
2023-04-24T05:13:57.828Z,20.47
2023-04-24T05:16:24.602Z,20.47
2023-04-24T05:18:51.230Z,20.49
2023-04-24T05:21:20.324Z,20.48
2023-04-24T05:23:46.980Z,20.46
2023-04-24T05:26:14.584Z,20.47
2023-04-24T05:28:41.837Z,20.47
2023-04-24T05:31:10.850Z,20.48
2023-04-24T05:33:37.524Z,20.45
2023-04-24T05:36:07.277Z,20.46
2023-04-24T05:38:34.330Z,20.47
2023-04-24T05:41:03.358Z,20.34
2023-04-24T05:43:34.734Z,19.76
2023-04-24T05:46:03.877Z,19.44
2023-04-24T05:48:33.219Z,19.22
2023-04-24T05:50:59.967Z,19.23
2023-04-24T05:53:28.787Z,19.05
2023-04-24T05:55:55.529Z,19.02
2023-04-24T05:58:25.423Z,19.10
2023-04-24T06:00:54.793Z,18.85
2023-04-24T06:03:24.073Z,18.79
2023-04-24T06:05:58.649Z,18.77
2023-04-24T06:08:27.528Z,18.67
2023-04-24T06:10:54.257Z,18.51
2023-04-24T06:13:21.179Z,18.55
2023-04-24T06:15:49.806Z,18.63
2023-04-24T06:18:16.784Z,18.51
2023-04-24T06:20:50.747Z,18.39
2023-04-24T06:23:17.529Z,18.51
2023-04-24T06:25:46.576Z,18.44
2023-04-24T06:28:18.496Z,18.34
2023-04-24T06:30:45.144Z,18.34
2023-04-24T06:35:45.820Z,18.25
2023-04-24T06:38:14.672Z,18.27
2023-04-24T06:40:46.434Z,18.32
2023-04-24T06:43:18.652Z,18.34
2023-04-24T06:45:47.584Z,18.45
2023-04-24T06:48:16.890Z,18.51
2023-04-24T06:50:48.180Z,18.07
2023-04-24T06:53:15.427Z,18.25
2023-04-24T06:55:45.771Z,18.35
2023-04-24T06:58:17.156Z,18.17
2023-04-24T07:00:46.064Z,18.43
2023-04-24T07:03:12.936Z,18.52
2023-04-24T07:05:40.078Z,18.57
2023-04-24T07:08:07.856Z,18.60
2023-04-24T07:10:35.167Z,18.56
2023-04-24T07:13:03.971Z,18.56
2023-04-24T07:15:30.886Z,18.61
2023-04-24T07:17:59.734Z,18.69
2023-04-24T07:20:28.670Z,18.74
2023-04-24T07:22:55.369Z,18.82
2023-04-24T07:25:22.468Z,18.99
2023-04-24T07:27:50.101Z,19.09
2023-04-24T07:30:22.145Z,19.12
2023-04-24T07:32:50.985Z,19.12
2023-04-24T07:35:17.662Z,19.27
2023-04-24T07:37:46.941Z,19.37
2023-04-24T07:40:19.743Z,19.41
2023-04-24T07:42:52.564Z,19.45
2023-04-24T07:45:21.498Z,19.57
2023-04-24T07:47:48.150Z,19.58
2023-04-24T07:50:17.644Z,19.26
2023-04-24T07:52:49.311Z,19.50
2023-04-24T07:55:16.087Z,19.59
2023-04-24T07:57:42.791Z,19.58
2023-04-24T08:00:12.240Z,19.72
2023-04-24T08:02:39.233Z,19.59
2023-04-24T08:05:06.758Z,19.70
2023-04-24T08:07:36.367Z,19.73
2023-04-24T08:10:06.348Z,19.83
2023-04-24T08:12:38.216Z,19.92
2023-04-24T08:15:08.489Z,19.98
2023-04-24T08:17:36.392Z,19.81
2023-04-24T08:20:06.276Z,19.85
2023-04-24T08:22:35.218Z,19.86
2023-04-24T08:25:04.033Z,19.68
2023-04-24T08:27:33.330Z,19.90
2023-04-24T08:30:00.823Z,19.98
2023-04-24T08:32:30.164Z,19.94
2023-04-24T08:34:59.679Z,19.85
2023-04-24T08:37:30.098Z,19.74
2023-04-24T08:39:59.483Z,19.92
2023-04-24T08:42:26.166Z,20.07
2023-04-24T08:44:55.023Z,19.98
2023-04-24T08:47:25.793Z,19.94
2023-04-24T08:49:54.707Z,20.07
2023-04-24T08:52:23.696Z,20.04
2023-04-24T08:54:50.502Z,20.09
2023-04-24T08:57:22.257Z,20.21
2023-04-24T08:59:48.941Z,20.27
2023-04-24T09:02:17.789Z,20.35
2023-04-24T09:04:44.693Z,20.37
2023-04-24T09:07:14.524Z,20.31
2023-04-24T09:09:41.402Z,20.25
2023-04-24T09:12:10.407Z,20.26
2023-04-24T09:14:46.233Z,20.32
2023-04-24T09:17:13.562Z,20.22
2023-04-24T09:19:41.514Z,20.15
2023-04-24T09:22:08.878Z,20.18
2023-04-24T09:24:36.038Z,20.28
2023-04-24T09:27:04.978Z,20.32
2023-04-24T09:29:33.841Z,20.32
2023-04-24T09:32:02.738Z,20.42
2023-04-24T09:34:29.529Z,20.40
2023-04-24T09:36:58.544Z,20.41
2023-04-24T09:39:27.347Z,20.44
2023-04-24T09:41:57.739Z,20.48
2023-04-24T09:44:25.741Z,20.44
2023-04-24T09:47:03.740Z,20.56
2023-04-24T09:49:31.396Z,20.64
2023-04-24T09:52:10.182Z,20.67
2023-04-24T09:54:40.499Z,20.78
2023-04-24T09:57:08.781Z,20.75
2023-04-24T09:59:39.623Z,20.68
2023-04-24T10:02:20.791Z,20.79
2023-04-24T10:04:57.699Z,20.87
2023-04-24T10:07:27.225Z,20.90
2023-04-24T10:09:56.687Z,20.96
2023-04-24T10:12:26.004Z,21.01
2023-04-24T10:14:52.684Z,20.98
2023-04-24T10:17:21.526Z,21.06
2023-04-24T10:19:50.856Z,21.10
2023-04-24T10:22:17.792Z,21.17
2023-04-24T10:24:45.166Z,21.20
2023-04-24T10:27:11.909Z,21.15
2023-04-24T10:29:43.857Z,21.12
2023-04-24T10:32:11.078Z,21.14
2023-04-24T10:34:40.102Z,21.10
2023-04-24T10:37:06.802Z,21.08
2023-04-24T10:39:34.621Z,21.06
2023-04-24T10:42:01.888Z,21.09
2023-04-24T10:44:36.903Z,21.10
2023-04-24T10:47:03.781Z,21.07
2023-04-24T10:49:31.488Z,21.10
2023-04-24T10:52:06.836Z,21.12
2023-04-24T10:54:45.275Z,21.15
2023-04-24T10:57:24.079Z,21.16
2023-04-24T11:00:10.718Z,21.15
2023-04-24T11:02:38.474Z,21.20
2023-04-24T11:05:05.563Z,21.21
2023-04-24T11:08:11.406Z,21.24
2023-04-24T11:10:58.598Z,21.09
2023-04-24T11:13:29.136Z,21.16
2023-04-24T11:16:15.042Z,21.29
2023-04-24T11:18:46.346Z,21.21
2023-04-24T11:21:16.048Z,21.22
2023-04-24T11:23:43.038Z,21.07
2023-04-24T11:26:33.531Z,21.11
2023-04-24T11:29:11.936Z,21.11
2023-04-24T11:31:49.622Z,21.10
2023-04-24T11:34:17.426Z,21.08
2023-04-24T11:36:45.298Z,21.04
2023-04-24T11:39:14.263Z,21.00
2023-04-24T11:41:40.925Z,21.02
2023-04-24T11:44:08.974Z,21.00
2023-04-24T11:46:37.838Z,20.98
2023-04-24T11:49:07.477Z,20.80
2023-04-24T11:51:40.688Z,20.62
2023-04-24T11:54:14.907Z,20.31
2023-04-24T11:56:47.704Z,19.97
2023-04-24T11:59:16.578Z,19.72
2023-04-24T12:01:47.006Z,19.83
2023-04-24T12:04:17.381Z,19.83
2023-04-24T12:07:06.859Z,19.75
2023-04-24T12:09:43.900Z,19.60
2023-04-24T12:12:13.111Z,19.87
2023-04-24T12:15:01.625Z,19.66
2023-04-24T12:17:30.924Z,19.73
2023-04-24T12:20:04.488Z,19.82
2023-04-24T12:22:58.018Z,19.72
2023-04-24T12:25:34.168Z,19.72
2023-04-24T12:28:06.821Z,20.03
2023-04-24T12:30:35.310Z,19.79
2023-04-24T12:33:04.791Z,19.83
2023-04-24T12:35:34.706Z,19.85
2023-04-24T12:38:14.188Z,19.69
2023-04-24T12:40:44.020Z,20.00
2023-04-24T12:43:18.952Z,20.18
2023-04-24T12:45:48.385Z,20.29
2023-04-24T12:48:18.167Z,20.31
2023-04-24T12:50:47.825Z,20.34
2023-04-24T12:53:19.232Z,20.40
2023-04-24T12:55:53.553Z,20.41
2023-04-24T12:58:23.058Z,20.42
